createdAt,value
2019-05-20T00:02:23.512Z,58.53
2019-05-20T00:04:45.844Z,57.44
2019-05-20T00:07:14.533Z,57.87
2019-05-20T00:09:43.249Z,59.48
2019-05-20T00:12:11.947Z,59.98
2019-05-20T00:14:40.663Z,61.45
2019-05-20T00:17:09.335Z,59.85
2019-05-20T00:19:40.992Z,60.25
2019-05-20T00:22:09.677Z,61.07
2019-05-20T00:24:38.341Z,61.90
2019-05-20T00:27:07.018Z,61.25
2019-05-20T00:29:35.736Z,59.71
2019-05-20T00:32:04.407Z,60.79
2019-05-20T00:34:35.504Z,63.50
2019-05-20T00:37:03.478Z,64.68
2019-05-20T00:39:32.161Z,64.71
2019-05-20T00:42:03.609Z,65.96
2019-05-20T00:44:32.277Z,66.31
2019-05-20T00:47:00.951Z,66.19
2019-05-20T00:49:29.632Z,65.85
2019-05-20T00:51:58.297Z,64.38
2019-05-20T00:54:27.025Z,64.31
2019-05-20T00:56:55.660Z,65.24
2019-05-20T00:59:24.335Z,65.90
2019-05-20T01:01:53.065Z,65.60
2019-05-20T01:04:21.765Z,64.03
2019-05-20T01:06:50.449Z,63.88
2019-05-20T01:09:19.162Z,66.89
2019-05-20T01:11:47.834Z,67.04
2019-05-20T01:14:15.210Z,67.07
2019-05-20T01:16:43.914Z,67.19
2019-05-20T01:19:12.564Z,68.05
2019-05-20T01:21:41.242Z,67.17
2019-05-20T01:24:09.912Z,66.51
2019-05-20T01:26:38.592Z,66.96
2019-05-20T01:29:07.259Z,65.85
2019-05-20T01:31:36.012Z,66.09
2019-05-20T01:34:04.675Z,66.76
2019-05-20T01:36:33.369Z,65.48
2019-05-20T01:39:02.129Z,66.57
2019-05-20T01:41:30.797Z,66.24
2019-05-20T01:43:59.473Z,66.29
2019-05-20T01:46:28.141Z,66.41
2019-05-20T01:48:56.817Z,65.22
2019-05-20T01:51:25.479Z,65.53
2019-05-20T01:53:54.152Z,65.48
2019-05-20T01:56:22.831Z,64.99
2019-05-20T01:58:51.513Z,65.67
2019-05-20T02:01:20.206Z,65.42
2019-05-20T02:03:48.992Z,65.66
2019-05-20T02:06:17.683Z,66.61
2019-05-20T02:08:47.447Z,65.55
2019-05-20T02:11:16.119Z,65.29
2019-05-20T02:13:55.572Z,66.24
2019-05-20T02:16:25.922Z,65.88
2019-05-20T02:18:54.690Z,66.22
2019-05-20T02:21:23.461Z,66.31
2019-05-20T02:23:52.130Z,66.68
2019-05-20T02:26:20.807Z,66.79
2019-05-20T02:28:49.485Z,67.13
2019-05-20T02:31:18.161Z,66.36
2019-05-20T02:33:52.228Z,66.41
2019-05-20T02:36:17.234Z,66.52
2019-05-20T02:38:46.013Z,67.11
2019-05-20T02:41:14.682Z,66.32
2019-05-20T02:43:43.442Z,66.73
2019-05-20T02:46:12.123Z,67.30
2019-05-20T02:48:41.301Z,66.97
2019-05-20T02:51:09.987Z,65.56
2019-05-20T02:53:38.666Z,65.87
2019-05-20T02:56:07.331Z,65.80
2019-05-20T02:58:36.010Z,66.44
2019-05-20T03:01:04.990Z,66.47
2019-05-20T03:03:33.650Z,66.73
2019-05-20T03:06:02.328Z,66.15
2019-05-20T03:08:30.997Z,66.58
2019-05-20T03:11:00.848Z,66.82
2019-05-20T03:13:29.511Z,67.09
2019-05-20T03:15:58.188Z,66.77
2019-05-20T03:18:26.855Z,66.76
2019-05-20T03:20:55.544Z,67.40
2019-05-20T03:23:24.204Z,67.79
2019-05-20T03:25:53.087Z,67.76
2019-05-20T03:28:21.777Z,67.52
2019-05-20T03:30:50.457Z,66.53
2019-05-20T03:33:19.133Z,66.30
2019-05-20T03:35:47.783Z,65.58
2019-05-20T03:38:16.467Z,65.58
2019-05-20T03:40:45.146Z,65.80
2019-05-20T03:43:13.820Z,67.06
2019-05-20T03:45:42.710Z,67.95
2019-05-20T03:48:11.474Z,68.33
2019-05-20T03:50:40.132Z,68.74
2019-05-20T03:53:08.796Z,68.35
2019-05-20T03:55:38.475Z,67.66
2019-05-20T03:58:07.143Z,67.07
2019-05-20T04:00:48.533Z,66.04
2019-05-20T04:03:17.400Z,66.14
2019-05-20T04:05:46.268Z,66.29
2019-05-20T04:08:15.066Z,66.26
2019-05-20T04:10:43.711Z,65.88
2019-05-20T04:13:12.389Z,65.57
2019-05-20T04:15:42.125Z,63.50
2019-05-20T04:18:10.801Z,63.86
2019-05-20T04:20:39.598Z,60.73
2019-05-20T04:23:08.413Z,60.16
2019-05-20T04:25:37.061Z,59.96
2019-05-20T04:28:05.851Z,61.20
2019-05-20T04:30:34.556Z,60.78
2019-05-20T04:33:03.239Z,59.73
2019-05-20T04:35:31.904Z,59.85
2019-05-20T04:38:01.809Z,58.90
2019-05-20T04:40:30.471Z,59.60
2019-05-20T04:42:59.262Z,61.04
2019-05-20T04:45:27.927Z,60.49
2019-05-20T04:47:56.592Z,60.13
2019-05-20T04:50:26.725Z,59.39
2019-05-20T04:52:56.017Z,59.16
2019-05-20T04:55:24.678Z,58.02
2019-05-20T04:57:53.356Z,55.38
2019-05-20T05:00:49.016Z,55.50
2019-05-20T05:03:17.803Z,53.25
2019-05-20T05:05:46.617Z,51.56
2019-05-20T05:08:15.378Z,49.52
2019-05-20T05:10:44.112Z,48.65
2019-05-20T05:13:12.898Z,49.61
2019-05-20T05:15:41.612Z,47.58
2019-05-20T05:18:10.302Z,47.77
2019-05-20T05:20:47.157Z,46.61
2019-05-20T05:23:16.311Z,47.65
2019-05-20T05:25:46.101Z,48.69
2019-05-20T05:28:15.512Z,45.68
2019-05-20T05:30:46.185Z,44.53
2019-05-20T05:33:14.841Z,46.10
2019-05-20T05:35:52.691Z,46.18
2019-05-20T05:38:14.047Z,45.82
2019-05-20T05:40:42.749Z,45.24
2019-05-20T05:43:11.436Z,43.97
2019-05-20T05:45:40.192Z,43.93
2019-05-20T05:48:08.945Z,42.49
2019-05-20T05:50:37.920Z,41.40
2019-05-20T05:53:06.620Z,41.84
2019-05-20T05:55:35.285Z,42.76
2019-05-20T05:58:03.972Z,45.17
2019-05-20T06:00:32.760Z,50.50
2019-05-20T06:03:01.563Z,51.96
2019-05-20T06:05:31.785Z,52.10
2019-05-20T06:08:00.644Z,51.06
2019-05-20T06:10:29.460Z,50.83
2019-05-20T06:12:58.168Z,48.96
2019-05-20T06:15:27.086Z,47.00
2019-05-20T06:18:13.395Z,46.90
2019-05-20T06:20:43.732Z,46.50
2019-05-20T06:23:12.432Z,44.42
2019-05-20T06:25:41.121Z,43.56
2019-05-20T06:28:09.804Z,44.00
2019-05-20T06:30:41.327Z,42.79
2019-05-20T06:33:10.035Z,42.59
2019-05-20T06:35:38.832Z,42.53
2019-05-20T06:38:12.210Z,43.35
2019-05-20T06:40:40.902Z,44.16
2019-05-20T06:43:09.578Z,46.37
2019-05-20T06:45:38.370Z,46.25
2019-05-20T06:48:07.135Z,47.87
2019-05-20T06:50:35.926Z,47.81
2019-05-20T06:53:04.756Z,47.11
2019-05-20T06:55:33.497Z,45.49
2019-05-20T06:58:02.262Z,46.47
2019-05-20T07:00:39.334Z,46.68
2019-05-20T07:03:08.095Z,46.59
2019-05-20T07:05:36.875Z,46.84
2019-05-20T07:08:05.754Z,45.36
2019-05-20T07:10:34.554Z,46.24
2019-05-20T07:13:03.359Z,47.13
2019-05-20T07:15:32.023Z,47.45
2019-05-20T07:18:00.718Z,46.48
2019-05-20T07:20:29.416Z,46.56
2019-05-20T07:22:58.750Z,47.51
2019-05-20T07:25:29.146Z,45.11
2019-05-20T07:27:57.980Z,42.09
2019-05-20T07:30:26.681Z,38.95
2019-05-20T07:32:55.543Z,37.44
2019-05-20T07:35:30.183Z,32.09
2019-05-20T07:37:55.268Z,31.10
2019-05-20T07:40:31.329Z,29.62
2019-05-20T07:43:00.080Z,30.23
2019-05-20T07:45:31.419Z,32.66
2019-05-20T07:48:00.516Z,31.04
2019-05-20T07:50:29.978Z,29.24
2019-05-20T07:53:00.514Z,30.33
2019-05-20T07:55:32.605Z,30.84
2019-05-20T07:58:04.595Z,28.68
2019-05-20T08:00:36.558Z,27.55
2019-05-20T08:03:05.869Z,26.98
2019-05-20T08:05:34.630Z,29.38
2019-05-20T08:08:03.341Z,26.99
2019-05-20T08:10:32.711Z,27.06
2019-05-20T08:13:01.402Z,27.49
2019-05-20T08:15:30.132Z,25.51
2019-05-20T08:17:58.864Z,25.03
2019-05-20T08:20:28.024Z,25.14
2019-05-20T08:22:57.056Z,25.11
2019-05-20T08:25:25.857Z,26.52
2019-05-20T08:27:54.601Z,27.35
2019-05-20T08:30:34.819Z,28.37
2019-05-20T08:33:04.008Z,28.65
2019-05-20T08:35:32.695Z,28.40
2019-05-20T08:38:01.472Z,28.14
2019-05-20T08:40:30.157Z,28.90
2019-05-20T08:42:58.932Z,29.03
2019-05-20T08:45:27.650Z,28.64
2019-05-20T08:47:56.369Z,27.47
2019-05-20T08:53:41.801Z,26.19
2019-05-20T08:56:10.631Z,26.14
2019-05-20T08:58:39.355Z,27.71
2019-05-20T09:01:10.074Z,29.19
2019-05-20T09:03:39.204Z,29.72
2019-05-20T09:06:07.991Z,29.25
2019-05-20T09:08:36.741Z,28.13
2019-05-20T09:11:05.457Z,28.56
2019-05-20T09:13:34.193Z,29.77
2019-05-20T09:16:02.959Z,28.16
2019-05-20T09:18:31.663Z,26.60
2019-05-20T09:21:00.372Z,26.79
2019-05-20T09:23:29.118Z,27.02
2019-05-20T09:25:57.822Z,27.48
2019-05-20T09:28:26.675Z,25.74
2019-05-20T09:30:55.608Z,27.53
2019-05-20T09:33:25.346Z,27.14
2019-05-20T09:35:54.248Z,25.54
2019-05-20T09:38:22.961Z,23.31
2019-05-20T09:40:51.693Z,22.57
2019-05-20T09:43:20.355Z,22.77
2019-05-20T09:46:05.629Z,23.52
2019-05-20T09:48:19.624Z,23.50
2019-05-20T09:50:48.362Z,23.50
2019-05-20T09:53:17.329Z,23.36
2019-05-20T09:55:46.026Z,21.19
2019-05-20T09:58:14.984Z,22.62
2019-05-20T10:00:44.017Z,21.73
2019-05-20T10:03:12.774Z,20.33
2019-05-20T10:05:42.161Z,20.03
2019-05-20T10:08:11.058Z,22.21
2019-05-20T10:10:39.912Z,23.72
2019-05-20T10:13:09.265Z,24.82
2019-05-20T10:15:38.605Z,26.19
2019-05-20T10:18:07.363Z,27.31
2019-05-20T10:20:36.090Z,28.01
2019-05-20T10:23:05.395Z,28.93
2019-05-20T10:25:34.176Z,30.28
2019-05-20T10:28:03.189Z,30.24
2019-05-20T10:30:32.245Z,30.41
2019-05-20T10:33:01.508Z,30.63
2019-05-20T10:35:30.900Z,31.82
2019-05-20T10:37:59.610Z,32.87
2019-05-20T10:40:27.495Z,33.85
2019-05-20T10:42:56.171Z,34.16
2019-05-20T10:45:25.141Z,34.13
2019-05-20T10:50:49.622Z,33.97
2019-05-20T10:53:18.338Z,33.10
2019-05-20T10:55:47.170Z,32.39
2019-05-20T10:58:16.242Z,33.61
2019-05-20T11:01:01.134Z,32.13
2019-05-20T11:03:16.132Z,32.21
2019-05-20T11:05:44.838Z,32.26
2019-05-20T11:08:13.615Z,31.80
2019-05-20T11:10:46.399Z,30.63
2019-05-20T11:13:15.226Z,29.59
2019-05-20T11:15:44.323Z,30.52
2019-05-20T11:18:13.092Z,29.79
2019-05-20T11:20:41.881Z,28.96
2019-05-20T11:23:10.671Z,29.50
2019-05-20T11:25:39.457Z,31.22
2019-05-20T11:28:11.848Z,31.92
2019-05-20T11:30:38.857Z,32.77
2019-05-20T11:33:07.684Z,32.95
2019-05-20T11:35:36.404Z,33.49
2019-05-20T11:38:05.327Z,34.78
2019-05-20T11:40:34.076Z,34.42
2019-05-20T11:43:02.986Z,34.78
2019-05-20T11:45:38.560Z,36.11
2019-05-20T11:48:07.396Z,36.05
2019-05-20T11:50:36.064Z,36.08
2019-05-20T11:53:04.776Z,36.25
2019-05-20T11:55:33.477Z,35.54
2019-05-20T11:58:15.156Z,35.93
2019-05-20T12:00:32.833Z,35.99
2019-05-20T12:03:01.537Z,37.28
2019-05-20T12:05:30.444Z,38.59
2019-05-20T12:10:42.723Z,38.60
2019-05-20T12:13:11.643Z,38.87
2019-05-20T12:15:40.378Z,38.96
2019-05-20T12:18:55.258Z,39.54
2019-05-20T12:21:23.975Z,40.17
2019-05-20T12:23:52.769Z,39.77
2019-05-20T12:26:22.798Z,39.46
2019-05-20T12:28:51.775Z,39.51
2019-05-20T12:31:20.853Z,40.93
2019-05-20T12:33:51.052Z,40.44
2019-05-20T12:36:20.113Z,41.14
2019-05-20T12:38:48.855Z,41.27
2019-05-20T12:41:17.735Z,41.61
2019-05-20T12:43:46.448Z,41.97
2019-05-20T12:46:15.132Z,42.84
2019-05-20T12:48:43.917Z,44.56
2019-05-20T12:51:14.692Z,46.42
2019-05-20T12:53:43.021Z,50.11
2019-05-20T12:56:11.776Z,50.89
2019-05-20T12:58:40.487Z,52.14
2019-05-20T13:01:09.216Z,49.00
2019-05-20T13:03:37.894Z,47.67
2019-05-20T13:06:06.607Z,47.98
2019-05-20T13:08:35.277Z,48.49
2019-05-20T13:11:03.958Z,46.02
2019-05-20T13:13:32.780Z,46.57
2019-05-20T13:16:01.474Z,47.13
2019-05-20T13:18:30.238Z,48.57
2019-05-20T13:20:58.977Z,49.74
2019-05-20T13:23:27.720Z,49.52
2019-05-20T13:26:05.774Z,48.08
2019-05-20T13:28:34.481Z,47.61
2019-05-20T13:31:03.174Z,46.15
2019-05-20T13:33:31.872Z,46.63
2019-05-20T13:36:00.750Z,45.14
2019-05-20T13:38:29.529Z,44.69
2019-05-20T13:40:58.377Z,40.98
2019-05-20T13:43:29.263Z,39.97
2019-05-20T13:45:57.671Z,42.52
2019-05-20T13:48:26.432Z,43.27
2019-05-20T13:50:55.194Z,45.20
2019-05-20T13:53:44.849Z,45.84
2019-05-20T13:56:14.202Z,45.33
2019-05-20T13:58:43.059Z,44.38
2019-05-20T14:01:11.740Z,43.43
2019-05-20T14:03:40.848Z,42.98
2019-05-20T14:06:09.623Z,43.01
2019-05-20T14:08:38.317Z,41.47
2019-05-20T14:11:07.169Z,41.92
2019-05-20T14:13:36.054Z,41.36
2019-05-20T14:16:50.081Z,40.24
2019-05-20T14:19:22.373Z,40.24
2019-05-20T14:21:49.364Z,35.79
2019-05-20T14:24:34.801Z,37.58
2019-05-20T14:27:03.567Z,39.72
2019-05-20T14:29:32.322Z,40.96
2019-05-20T14:32:01.373Z,42.02
2019-05-20T14:34:30.315Z,43.11
2019-05-20T14:36:57.849Z,44.03
2019-05-20T14:39:26.636Z,44.57
2019-05-20T14:41:55.335Z,45.41
2019-05-20T14:44:24.009Z,45.48
2019-05-20T14:46:52.711Z,45.16
2019-05-20T14:49:21.389Z,44.12
2019-05-20T14:51:50.136Z,46.34
2019-05-20T14:54:18.877Z,45.18
2019-05-20T14:56:47.696Z,48.22
2019-05-20T14:59:16.376Z,48.22
2019-05-20T15:01:45.085Z,48.50
2019-05-20T15:04:13.753Z,46.70
2019-05-20T15:06:42.907Z,48.32
2019-05-20T15:09:11.632Z,50.45
2019-05-20T15:11:40.321Z,50.60
2019-05-20T15:14:09.004Z,51.42
2019-05-20T15:16:37.701Z,52.15
2019-05-20T15:19:06.379Z,52.76
2019-05-20T15:21:35.062Z,51.84
2019-05-20T15:24:03.874Z,50.93
2019-05-20T15:26:32.558Z,48.64
2019-05-20T15:29:01.230Z,44.38
2019-05-20T15:31:29.904Z,43.57
2019-05-20T15:33:58.600Z,44.74
2019-05-20T15:36:27.289Z,44.46
2019-05-20T15:38:56.216Z,43.74
2019-05-20T15:41:24.941Z,44.16
2019-05-20T15:43:53.695Z,42.97
2019-05-20T15:46:22.380Z,42.81
2019-05-20T15:48:51.050Z,41.19
2019-05-20T15:51:19.724Z,35.98
2019-05-20T15:53:48.385Z,35.78
2019-05-20T15:56:17.243Z,36.68
2019-05-20T15:58:45.909Z,36.98
2019-05-20T16:01:16.708Z,38.94
2019-05-20T16:03:45.415Z,38.96
2019-05-20T16:06:14.136Z,37.98
2019-05-20T16:08:42.833Z,36.27
2019-05-20T16:11:10.297Z,36.54
2019-05-20T16:13:38.966Z,38.58
2019-05-20T16:16:07.673Z,42.06
2019-05-20T16:18:36.390Z,42.82
2019-05-20T16:21:05.079Z,49.18
2019-05-20T16:23:33.926Z,51.04
2019-05-20T16:26:02.626Z,51.37
2019-05-20T16:28:31.364Z,51.39
2019-05-20T16:31:03.868Z,52.38
2019-05-20T16:33:32.590Z,54.90
2019-05-20T16:36:01.567Z,55.60
2019-05-20T16:38:30.294Z,56.01
2019-05-20T16:40:58.989Z,55.77
2019-05-20T16:43:27.646Z,55.02
2019-05-20T16:45:56.337Z,54.87
2019-05-20T16:48:25.062Z,56.45
2019-05-20T16:50:53.775Z,57.19
2019-05-20T16:53:22.466Z,57.44
2019-05-20T16:55:51.142Z,59.07
2019-05-20T16:58:19.881Z,60.84
2019-05-20T17:00:48.589Z,61.07
2019-05-20T17:03:17.293Z,60.93
2019-05-20T17:05:46.199Z,60.22
2019-05-20T17:08:14.904Z,60.39
2019-05-20T17:10:43.612Z,60.02
2019-05-20T17:13:12.377Z,60.55
2019-05-20T17:15:41.047Z,61.88
2019-05-20T17:18:09.866Z,61.73
2019-05-20T17:20:39.441Z,61.41
2019-05-20T17:23:08.159Z,60.57
2019-05-20T17:25:37.560Z,61.25
2019-05-20T17:28:06.482Z,61.69
2019-05-20T17:30:45.023Z,62.52
2019-05-20T17:33:05.561Z,63.57
2019-05-20T17:35:34.345Z,63.62
2019-05-20T17:38:03.041Z,63.37
2019-05-20T17:40:31.781Z,62.93
2019-05-20T17:43:00.485Z,63.23
2019-05-20T17:45:29.126Z,63.42
2019-05-20T17:47:57.842Z,63.34
2019-05-20T17:50:26.531Z,63.46
2019-05-20T17:52:55.228Z,63.46
2019-05-20T17:55:24.156Z,63.82
2019-05-20T17:57:53.354Z,64.23
2019-05-20T18:00:23.811Z,63.94
2019-05-20T18:02:53.029Z,64.25
2019-05-20T18:05:21.732Z,64.60
2019-05-20T18:07:50.552Z,64.96
2019-05-20T18:10:20.850Z,65.76
2019-05-20T18:12:49.574Z,65.64
2019-05-20T18:15:18.929Z,65.50
2019-05-20T18:17:47.709Z,65.56
2019-05-20T18:20:16.728Z,65.73
2019-05-20T18:22:45.422Z,65.25
2019-05-20T18:25:16.303Z,65.07
2019-05-20T18:27:44.960Z,65.51
2019-05-20T18:30:14.762Z,66.37
2019-05-20T18:32:43.529Z,67.05
2019-05-20T18:35:12.314Z,67.19
2019-05-20T18:37:41.079Z,67.07
2019-05-20T18:40:14.269Z,67.84
2019-05-20T18:42:40.592Z,68.21
2019-05-20T18:45:09.669Z,67.97
2019-05-20T18:47:38.338Z,68.12
2019-05-20T18:50:08.015Z,67.75
2019-05-20T18:52:36.788Z,67.45
2019-05-20T18:55:06.567Z,66.26
2019-05-20T18:57:35.250Z,66.38
2019-05-20T19:00:05.554Z,66.51
2019-05-20T19:02:34.348Z,67.21
2019-05-20T19:05:03.209Z,68.19
2019-05-20T19:07:31.895Z,68.46
2019-05-20T19:10:00.597Z,67.59
2019-05-20T19:12:29.274Z,67.30
2019-05-20T19:14:58.191Z,66.59
2019-05-20T19:17:26.906Z,66.91
2019-05-20T19:19:55.577Z,68.07
2019-05-20T19:22:24.253Z,67.85
2019-05-20T19:24:52.938Z,67.98
2019-05-20T19:27:21.631Z,67.93
2019-05-20T19:29:50.337Z,67.61
2019-05-20T19:32:20.617Z,67.76
2019-05-20T19:34:49.319Z,66.87
2019-05-20T19:37:18.326Z,65.00
2019-05-20T19:39:47.009Z,65.30
2019-05-20T19:42:15.768Z,65.60
2019-05-20T19:44:44.506Z,65.90
2019-05-20T19:47:13.211Z,66.67
2019-05-20T19:49:42.713Z,67.83
2019-05-20T19:52:11.728Z,67.57
2019-05-20T19:54:40.413Z,66.81
2019-05-20T19:57:09.091Z,67.39
2019-05-20T19:59:37.984Z,67.28
2019-05-20T20:02:16.858Z,68.79
2019-05-20T20:04:37.167Z,69.41
2019-05-20T20:07:05.848Z,69.54
2019-05-20T20:09:34.564Z,69.77
2019-05-20T20:12:03.223Z,69.44
2019-05-20T20:14:31.943Z,70.21
2019-05-20T20:17:00.610Z,70.29
2019-05-20T20:19:29.296Z,70.14
2019-05-20T20:21:58.094Z,70.07
2019-05-20T20:24:26.889Z,69.85
2019-05-20T20:26:55.570Z,70.65
2019-05-20T20:29:24.260Z,70.68
2019-05-20T20:31:52.923Z,70.91
2019-05-20T20:34:21.615Z,70.22
2019-05-20T20:36:50.301Z,69.16
2019-05-20T20:39:18.976Z,68.44
2019-05-20T20:41:47.693Z,69.22
2019-05-20T20:44:16.607Z,69.83
2019-05-20T20:46:46.268Z,70.20
2019-05-20T20:49:15.344Z,69.98
2019-05-20T20:51:44.161Z,71.07
2019-05-20T20:54:12.860Z,70.44
2019-05-20T20:56:41.621Z,70.45
2019-05-20T20:59:10.330Z,70.88
2019-05-20T21:01:39.042Z,70.93
2019-05-20T21:04:07.753Z,72.39
2019-05-20T21:06:36.644Z,72.77
2019-05-20T21:09:06.638Z,74.34
2019-05-20T21:11:35.380Z,73.82
2019-05-20T21:14:04.167Z,75.05
2019-05-20T21:16:32.967Z,72.25
2019-05-20T21:19:01.717Z,71.01
2019-05-20T21:21:30.476Z,71.93
2019-05-20T21:23:59.291Z,72.27
2019-05-20T21:26:28.006Z,71.41
2019-05-20T21:28:56.721Z,75.77
2019-05-20T21:31:25.538Z,76.44
2019-05-20T21:33:54.243Z,76.72
2019-05-20T21:36:22.986Z,77.85
2019-05-20T21:38:51.704Z,73.40
2019-05-20T21:41:20.435Z,74.69
2019-05-20T21:43:49.156Z,76.77
2019-05-20T21:46:17.885Z,77.59
2019-05-20T21:48:46.595Z,77.63
2019-05-20T21:51:15.461Z,78.37
2019-05-20T21:53:44.140Z,76.92
2019-05-20T21:56:12.807Z,76.86
2019-05-20T21:58:41.494Z,75.24
2019-05-20T22:01:10.275Z,74.33
2019-05-20T22:03:38.945Z,74.47
2019-05-20T22:06:07.623Z,74.24
2019-05-20T22:08:36.312Z,74.28
2019-05-20T22:11:05.017Z,74.63
2019-05-20T22:13:33.906Z,74.77
2019-05-20T22:16:02.704Z,74.44
2019-05-20T22:18:31.401Z,74.52
2019-05-20T22:21:00.073Z,75.13
2019-05-20T22:23:42.622Z,75.17
2019-05-20T22:26:11.279Z,75.60
2019-05-20T22:28:39.938Z,75.90
2019-05-20T22:31:08.645Z,75.84
2019-05-20T22:33:41.868Z,76.70
2019-05-20T22:36:07.949Z,77.03
2019-05-20T22:38:36.632Z,77.26
2019-05-20T22:41:05.407Z,77.20
2019-05-20T22:43:34.089Z,77.16
2019-05-20T22:46:02.768Z,76.58
2019-05-20T22:48:31.431Z,76.66
2019-05-20T22:51:00.118Z,77.14
2019-05-20T22:53:28.879Z,77.17
2019-05-20T22:55:57.623Z,76.56
2019-05-20T22:58:26.452Z,76.85
2019-05-20T23:00:55.118Z,77.43
2019-05-20T23:03:23.821Z,77.80
2019-05-20T23:05:52.512Z,77.76
2019-05-20T23:08:21.210Z,77.86
2019-05-20T23:10:49.855Z,77.34
2019-05-20T23:13:18.522Z,76.90
2019-05-20T23:15:47.227Z,76.90
2019-05-20T23:18:16.082Z,76.44
2019-05-20T23:20:44.747Z,76.07
2019-05-20T23:23:13.440Z,76.04
2019-05-20T23:25:42.141Z,75.35
2019-05-20T23:28:10.807Z,75.50
2019-05-20T23:30:39.466Z,75.91
2019-05-20T23:33:08.188Z,76.32
2019-05-20T23:35:36.858Z,76.13
2019-05-20T23:38:05.591Z,76.24
2019-05-20T23:40:34.339Z,75.40
2019-05-20T23:43:03.031Z,75.02
2019-05-20T23:45:31.740Z,75.56
2019-05-20T23:48:00.426Z,76.36
2019-05-20T23:50:29.112Z,76.57
2019-05-20T23:52:57.790Z,77.55
2019-05-20T23:55:26.528Z,77.37
2019-05-20T23:57:55.328Z,77.30
